Time;durP1;ratioP1;P1;durP2;ratioP2;P2;SDS_P1;SDS_P2;PMS_P1;PMS_P2;Temp;Humidity;BMP_temperature;BMP_pressure;BME280_temperature;BME280_humidity;BME280_pressure;Samples;Min_cycle;Max_cycle;Signal;HPM_P1;HPM_P2
2022/03/15 00:00:36;;;;;;;7.60;4.70;;;7.20;99.90;;;;;;5073865;28;20246;-67
2022/03/15 00:03:02;;;;;;;7.97;3.93;;;7.00;99.90;;;;;;5074245;28;20183;-65
2022/03/15 00:05:27;;;;;;;7.30;4.50;;;7.10;99.90;;;;;;5056588;28;20176;-67
2022/03/15 00:07:53;;;;;;;7.20;4.70;;;7.10;99.90;;;;;;5074354;28;20171;-65
2022/03/15 00:10:19;;;;;;;6.97;4.50;;;7.10;99.90;;;;;;5089417;28;20176;-66
2022/03/15 00:12:47;;;;;;;8.30;4.77;;;7.00;99.90;;;;;;5073427;28;20171;-64
2022/03/15 00:15:13;;;;;;;11.27;5.07;;;7.00;99.90;;;;;;5073853;28;20193;-65
2022/03/15 00:17:41;;;;;;;10.97;6.20;;;6.90;99.90;;;;;;5073486;28;20250;-65
2022/03/15 00:20:09;;;;;;;5.67;3.90;;;6.90;99.90;;;;;;5073748;28;20212;-66
2022/03/15 00:22:36;;;;;;;7.03;4.47;;;6.90;99.90;;;;;;5073882;28;20201;-67
2022/03/15 00:25:03;;;;;;;11.63;4.57;;;6.80;99.90;;;;;;5073886;28;20159;-66
2022/03/15 00:27:29;;;;;;;7.93;4.07;;;6.90;99.90;;;;;;5073616;28;20606;-66
2022/03/15 00:29:55;;;;;;;5.43;4.00;;;6.80;99.90;;;;;;5073121;28;20164;-67
2022/03/15 00:32:20;;;;;;;6.17;4.30;;;6.80;99.90;;;;;;5073780;28;20480;-67
2022/03/15 00:34:47;;;;;;;6.33;3.90;;;6.70;99.90;;;;;;5073034;28;20163;-67
2022/03/15 00:37:13;;;;;;;8.00;4.30;;;6.60;99.90;;;;;;5074262;28;20568;-66
2022/03/15 00:39:39;;;;;;;7.00;4.50;;;6.70;99.90;;;;;;5077683;28;20188;-66
2022/03/15 00:42:05;;;;;;;9.13;4.20;;;6.70;99.90;;;;;;5072860;28;20171;-64
2022/03/15 00:44:30;;;;;;;7.70;4.10;;;6.60;99.90;;;;;;5073703;28;20250;-66
2022/03/15 00:46:56;;;;;;;7.67;4.43;;;6.60;99.90;;;;;;5073812;28;20501;-65
2022/03/15 00:49:23;;;;;;;9.43;3.73;;;6.60;99.90;;;;;;5072894;28;20167;-65
2022/03/15 00:51:49;;;;;;;9.83;3.97;;;6.50;99.90;;;;;;5073734;28;20196;-65
2022/03/15 00:54:14;;;;;;;9.60;3.97;;;6.50;99.90;;;;;;5073216;28;20552;-65
2022/03/15 00:56:40;;;;;;;7.40;4.00;;;6.40;99.90;;;;;;5072883;28;20170;-66
2022/03/15 00:59:07;;;;;;;7.77;4.33;;;6.40;99.90;;;;;;5073350;28;20188;-68
2022/03/15 01:01:33;;;;;;;6.20;4.13;;;6.40;99.90;;;;;;5073684;28;20179;-65
2022/03/15 01:03:59;;;;;;;6.57;3.73;;;6.50;99.90;;;;;;5055660;28;20188;-67
2022/03/15 01:06:24;;;;;;;6.70;4.03;;;6.50;99.90;;;;;;5073060;28;20167;-65
2022/03/15 01:08:50;;;;;;;6.17;3.93;;;6.50;99.90;;;;;;5073170;28;20168;-65
2022/03/15 01:11:15;;;;;;;7.73;3.97;;;6.40;99.90;;;;;;5073397;28;20176;-65
2022/03/15 01:13:41;;;;;;;6.03;3.80;;;6.50;99.90;;;;;;5073205;28;20213;-64
2022/03/15 01:16:07;;;;;;;5.23;3.60;;;6.50;99.90;;;;;;5073433;28;20301;-66
2022/03/15 01:18:34;;;;;;;5.43;3.53;;;6.40;99.90;;;;;;5073519;28;20188;-65
2022/03/15 01:20:59;;;;;;;5.00;3.57;;;6.40;99.90;;;;;;5073257;28;20165;-66
2022/03/15 01:23:25;;;;;;;6.27;3.87;;;6.40;99.90;;;;;;5073726;28;20170;-67
2022/03/15 01:25:51;;;;;;;6.00;3.70;;;6.40;99.90;;;;;;5073006;28;20173;-67
2022/03/15 01:28:16;;;;;;;5.40;3.33;;;6.40;99.90;;;;;;5055116;28;20275;-66
2022/03/15 01:30:43;;;;;;;5.17;3.13;;;6.30;99.90;;;;;;5054629;28;20179;-67
2022/03/15 01:33:08;;;;;;;6.90;3.77;;;6.30;99.90;;;;;;5073381;28;20156;-66
2022/03/15 01:35:34;;;;;;;5.80;3.80;;;6.30;99.90;;;;;;5073100;28;20532;-66
2022/03/15 01:38:00;;;;;;;8.03;4.27;;;6.40;99.90;;;;;;5073906;28;20300;-66
2022/03/15 01:40:25;;;;;;;6.43;3.70;;;6.40;99.90;;;;;;5080241;28;20196;-66
2022/03/15 01:42:51;;;;;;;5.83;3.40;;;6.50;99.90;;;;;;5082007;28;20256;-68
2022/03/15 01:45:17;;;;;;;5.70;3.40;;;6.50;99.90;;;;;;5074130;28;20175;-66
2022/03/15 01:47:46;;;;;;;6.80;3.93;;;6.50;99.90;;;;;;5079542;28;20178;-65
2022/03/15 01:50:12;;;;;;;6.73;3.40;;;6.50;99.90;;;;;;5080168;28;20166;-66
2022/03/15 01:52:37;;;;;;;5.30;3.60;;;6.50;99.90;;;;;;5079116;28;20167;-65
2022/03/15 01:55:05;;;;;;;5.27;3.13;;;6.40;99.90;;;;;;5079559;28;20251;-68
2022/03/15 01:57:31;;;;;;;7.87;3.53;;;6.20;99.90;;;;;;5080807;28;20163;-66
2022/03/15 01:59:57;;;;;;;6.63;3.50;;;6.20;99.90;;;;;;5081376;28;20187;-68
2022/03/15 02:02:23;;;;;;;6.50;3.60;;;6.10;99.90;;;;;;5080892;28;20246;-66
2022/03/15 02:04:49;;;;;;;6.67;3.67;;;6.10;99.90;;;;;;5083167;28;20161;-66
2022/03/15 02:07:15;;;;;;;7.90;3.83;;;6.00;99.90;;;;;;5082538;28;20189;-68
2022/03/15 02:09:41;;;;;;;5.67;3.20;;;6.00;99.90;;;;;;5081939;28;20175;-66
2022/03/15 02:12:07;;;;;;;5.00;3.33;;;6.00;99.90;;;;;;5083268;28;20617;-67
2022/03/15 02:14:34;;;;;;;6.47;3.27;;;5.90;99.90;;;;;;5081862;28;20206;-67
2022/03/15 02:17:00;;;;;;;6.47;3.90;;;5.90;99.90;;;;;;5080263;28;20207;-67
2022/03/15 02:19:27;;;;;;;6.43;3.70;;;5.90;99.90;;;;;;5060411;28;20208;-66
2022/03/15 02:21:53;;;;;;;5.50;3.20;;;5.80;99.90;;;;;;5076833;28;20152;-66
2022/03/15 02:24:19;;;;;;;6.97;3.63;;;5.70;99.90;;;;;;5076352;28;20226;-67
2022/03/15 02:26:45;;;;;;;5.20;2.63;;;5.70;99.90;;;;;;5076491;28;20173;-67
2022/03/15 02:29:11;;;;;;;5.93;3.23;;;5.50;99.90;;;;;;5075522;28;20180;-67
2022/03/15 02:31:36;;;;;;;4.97;3.40;;;5.50;99.90;;;;;;5076026;28;20287;-66
2022/03/15 02:34:02;;;;;;;3.87;3.33;;;5.40;99.90;;;;;;5075380;28;20247;-66
2022/03/15 02:36:28;;;;;;;6.17;3.00;;;5.30;99.90;;;;;;5075641;28;20178;-66
2022/03/15 02:38:53;;;;;;;7.00;3.77;;;5.30;99.90;;;;;;5075676;28;20203;-66
2022/03/15 02:41:19;;;;;;;4.97;3.70;;;5.10;99.90;;;;;;5075463;28;20648;-66
2022/03/15 02:43:45;;;;;;;5.57;3.37;;;5.10;99.90;;;;;;5075721;28;20168;-66
2022/03/15 02:46:12;;;;;;;4.07;3.10;;;4.90;99.90;;;;;;5075516;28;20570;-66
2022/03/15 02:48:37;;;;;;;5.87;3.33;;;4.90;99.90;;;;;;5075483;28;20168;-66
2022/03/15 02:51:08;;;;;;;5.50;3.37;;;4.80;99.90;;;;;;5075512;28;20165;-66
2022/03/15 02:53:36;;;;;;;6.13;3.63;;;4.90;99.90;;;;;;5075277;28;20160;-66
2022/03/15 02:56:01;;;;;;;5.53;3.80;;;5.00;99.90;;;;;;5075375;28;20164;-67
2022/03/15 02:58:27;;;;;;;4.47;3.10;;;5.00;99.90;;;;;;5075083;28;20268;-67
2022/03/15 03:00:53;;;;;;;6.27;3.70;;;4.80;99.90;;;;;;5075066;28;20172;-67
2022/03/15 03:03:18;;;;;;;5.60;2.87;;;4.80;99.90;;;;;;5074728;28;20175;-67
2022/03/15 03:05:44;;;;;;;6.80;3.53;;;4.90;99.90;;;;;;5075364;28;20172;-66
2022/03/15 03:08:10;;;;;;;4.30;3.30;;;4.80;99.90;;;;;;5074611;28;20174;-66
2022/03/15 03:10:36;;;;;;;5.70;3.30;;;4.90;99.90;;;;;;5057210;28;20171;-66
2022/03/15 03:13:01;;;;;;;7.43;3.30;;;4.90;99.90;;;;;;5074687;28;20159;-67
2022/03/15 03:15:27;;;;;;;3.60;2.67;;;4.80;99.90;;;;;;5075040;28;20215;-66
2022/03/15 03:17:53;;;;;;;6.93;3.07;;;4.90;99.90;;;;;;5075033;28;20208;-65
2022/03/15 03:20:19;;;;;;;5.07;2.90;;;4.90;99.90;;;;;;5075148;28;20163;-66
2022/03/15 03:22:46;;;;;;;6.20;3.97;;;4.90;99.90;;;;;;5079895;28;20167;-66
2022/03/15 03:25:12;;;;;;;6.20;3.80;;;4.90;99.90;;;;;;5096916;28;20181;-67
2022/03/15 03:27:38;;;;;;;9.37;3.97;;;4.80;99.90;;;;;;5079685;28;20173;-66
2022/03/15 03:30:04;;;;;;;9.40;4.60;;;4.80;99.90;;;;;;5079815;28;20164;-66
2022/03/15 03:32:30;;;;;;;6.80;4.33;;;4.80;99.90;;;;;;5078240;28;20167;-67
2022/03/15 03:34:56;;;;;;;5.80;3.63;;;4.70;99.90;;;;;;5079718;28;20251;-66
2022/03/15 03:37:24;;;;;;;5.87;3.50;;;4.80;99.90;;;;;;5079593;28;20230;-67
2022/03/15 03:39:51;;;;;;;6.23;3.60;;;4.80;99.90;;;;;;5079812;28;20589;-66
2022/03/15 03:42:18;;;;;;;6.20;3.87;;;4.70;99.90;;;;;;5079188;28;20189;-67
2022/03/15 03:44:43;;;;;;;3.70;3.17;;;4.70;99.90;;;;;;5078118;28;20169;-66
2022/03/15 03:47:11;;;;;;;4.63;2.90;;;4.60;99.90;;;;;;5077986;28;20170;-66
2022/03/15 03:49:38;;;;;;;7.53;3.77;;;4.60;99.90;;;;;;5061291;28;20565;-66
2022/03/15 03:52:05;;;;;;;5.80;3.83;;;4.50;99.90;;;;;;5079466;28;20171;-64
2022/03/15 03:54:31;;;;;;;7.23;4.20;;;4.60;99.90;;;;;;5079862;28;20669;-64
2022/03/15 03:56:57;;;;;;;5.33;3.77;;;4.60;99.90;;;;;;5073948;28;20156;-66
2022/03/15 03:59:23;;;;;;;6.03;3.30;;;4.50;99.90;;;;;;5074128;28;20219;-65
2022/03/15 04:01:49;;;;;;;5.20;3.07;;;4.50;99.90;;;;;;5073896;28;20210;-65
2022/03/15 04:04:15;;;;;;;4.97;3.40;;;4.60;99.90;;;;;;5056700;28;20180;-65
2022/03/15 04:06:40;;;;;;;4.77;2.70;;;4.40;99.90;;;;;;5073828;28;20243;-64
2022/03/15 04:09:08;;;;;;;6.60;3.93;;;4.50;99.90;;;;;;5056435;28;20187;-64
2022/03/15 04:11:34;;;;;;;6.17;3.60;;;4.40;99.90;;;;;;5074188;28;20179;-65
2022/03/15 04:14:00;;;;;;;4.87;3.10;;;4.40;99.90;;;;;;5074393;28;20596;-64
2022/03/15 04:16:26;;;;;;;4.93;3.70;;;4.40;99.90;;;;;;5073860;28;20172;-63
2022/03/15 04:18:52;;;;;;;4.53;3.23;;;4.40;99.90;;;;;;5073835;28;20204;-65
2022/03/15 04:21:18;;;;;;;7.53;3.37;;;4.30;99.90;;;;;;5073418;28;20195;-66
2022/03/15 04:23:45;;;;;;;7.40;3.43;;;4.30;99.90;;;;;;5074147;28;20226;-64
2022/03/15 04:26:11;;;;;;;5.43;3.67;;;4.30;99.90;;;;;;5074896;28;20192;-65
2022/03/15 04:28:37;;;;;;;6.63;4.23;;;4.30;99.90;;;;;;5074164;28;20615;-66
2022/03/15 04:31:03;;;;;;;5.37;3.80;;;4.30;99.90;;;;;;5089964;28;20185;-66
2022/03/15 04:33:28;;;;;;;10.50;4.20;;;4.20;99.90;;;;;;5074188;28;20163;-65
2022/03/15 04:35:54;;;;;;;9.27;3.90;;;4.20;99.90;;;;;;5074446;28;20263;-65
2022/03/15 04:38:20;;;;;;;4.90;3.53;;;4.20;99.90;;;;;;5073919;28;20237;-65
2022/03/15 04:40:47;;;;;;;5.53;4.30;;;4.20;99.90;;;;;;5073765;28;20244;-65
2022/03/15 04:43:12;;;;;;;4.30;2.87;;;4.20;99.90;;;;;;5074058;28;20633;-65
2022/03/15 04:45:38;;;;;;;6.03;3.60;;;4.10;99.90;;;;;;5074790;28;20165;-64
2022/03/15 04:48:04;;;;;;;6.17;3.80;;;4.10;99.90;;;;;;5075520;28;20549;-64
2022/03/15 04:50:30;;;;;;;6.50;3.73;;;4.10;99.90;;;;;;5060684;28;20180;-65
2022/03/15 04:52:56;;;;;;;5.83;4.00;;;4.00;99.90;;;;;;5076906;28;20168;-64
2022/03/15 04:55:22;;;;;;;6.93;4.53;;;4.10;99.90;;;;;;5075895;28;20576;-66
2022/03/15 04:57:48;;;;;;;6.97;3.70;;;4.10;99.90;;;;;;5076220;28;20200;-65
2022/03/15 05:00:14;;;;;;;7.60;4.93;;;4.10;99.90;;;;;;5076351;28;20186;-66
2022/03/15 05:02:41;;;;;;;10.30;4.23;;;4.10;99.90;;;;;;5076407;28;20242;-66
2022/03/15 05:05:07;;;;;;;5.77;3.70;;;4.00;99.90;;;;;;5073906;28;20165;-65
2022/03/15 05:07:34;;;;;;;9.07;4.80;;;4.00;99.90;;;;;;5074512;28;20210;-65
2022/03/15 05:12:43;;;;;;;6.40;4.47;;;3.90;99.90;;;;;;5073032;28;20633;-66
2022/03/15 05:15:09;;;;;;;6.10;4.43;;;3.80;99.90;;;;;;5073180;28;20178;-65
2022/03/15 05:17:36;;;;;;;10.90;6.50;;;3.80;99.90;;;;;;5072689;28;20157;-65
2022/03/15 05:20:05;;;;;;;12.20;7.50;;;3.80;99.90;;;;;;5073071;28;20630;-65
2022/03/15 05:22:31;;;;;;;8.23;6.20;;;3.80;99.90;;;;;;5072842;28;20187;-65
2022/03/15 05:24:57;;;;;;;8.57;5.33;;;3.80;99.90;;;;;;5072852;28;20166;-65
2022/03/15 05:27:23;;;;;;;9.40;6.70;;;3.70;99.90;;;;;;5072923;28;20580;-65
2022/03/15 05:29:49;;;;;;;7.77;5.57;;;3.70;99.90;;;;;;5072610;28;20161;-65
2022/03/15 05:32:14;;;;;;;10.47;6.37;;;3.70;99.90;;;;;;5075438;28;20210;-66
2022/03/15 05:34:40;;;;;;;7.80;5.67;;;3.90;99.90;;;;;;5076454;28;20598;-65
2022/03/15 05:37:07;;;;;;;9.90;5.77;;;3.80;99.90;;;;;;5050729;28;20275;-65
2022/03/15 05:39:33;;;;;;;8.97;5.30;;;4.00;99.90;;;;;;5056636;28;20220;-64
2022/03/15 05:41:58;;;;;;;7.93;5.67;;;4.00;99.90;;;;;;5056741;28;20523;-64
2022/03/15 05:44:26;;;;;;;7.67;5.17;;;4.00;99.90;;;;;;5056548;28;20167;-64
2022/03/15 05:46:52;;;;;;;10.83;6.13;;;4.10;99.90;;;;;;5056504;28;20168;-65
2022/03/15 05:49:18;;;;;;;8.40;5.90;;;4.00;99.90;;;;;;5056594;28;20167;-67
2022/03/15 05:51:43;;;;;;;8.73;5.57;;;4.10;99.90;;;;;;5056736;28;20166;-65
2022/03/15 05:54:09;;;;;;;8.07;4.67;;;4.10;99.90;;;;;;5056074;28;20245;-64
2022/03/15 05:56:35;;;;;;;9.60;5.03;;;4.00;99.90;;;;;;5056432;28;20569;-66
2022/03/15 05:59:01;;;;;;;9.13;5.17;;;4.00;99.90;;;;;;5056266;28;20207;-65
2022/03/15 06:01:27;;;;;;;9.27;5.70;;;4.00;99.90;;;;;;5072014;28;20181;-65
2022/03/15 06:03:53;;;;;;;7.23;5.17;;;4.10;99.90;;;;;;5056164;28;20434;-66
2022/03/15 06:06:21;;;;;;;9.27;5.40;;;4.10;99.90;;;;;;5056379;28;20175;-64
2022/03/15 06:08:48;;;;;;;9.70;5.10;;;4.00;99.90;;;;;;5038434;28;20175;-65
2022/03/15 06:11:16;;;;;;;7.30;4.17;;;4.00;99.90;;;;;;5056263;28;20170;-64
2022/03/15 06:13:41;;;;;;;7.37;4.53;;;4.10;99.90;;;;;;5056513;28;20314;-65
2022/03/15 06:16:07;;;;;;;7.13;4.37;;;4.10;99.90;;;;;;5058440;28;20161;-65
2022/03/15 06:18:34;;;;;;;7.90;5.27;;;4.00;99.90;;;;;;5056390;28;20192;-66
2022/03/15 06:21:00;;;;;;;9.30;5.07;;;4.10;99.90;;;;;;5055813;28;20164;-65
2022/03/15 06:23:26;;;;;;;6.43;4.00;;;4.20;99.90;;;;;;5056139;28;20591;-65
2022/03/15 06:25:52;;;;;;;7.63;4.20;;;4.30;99.90;;;;;;5056584;28;20164;-64
2022/03/15 06:28:17;;;;;;;6.90;5.03;;;4.40;99.90;;;;;;5056032;28;20607;-65
2022/03/15 06:30:44;;;;;;;7.90;5.83;;;4.50;99.90;;;;;;5055987;28;20706;-65
2022/03/15 06:33:09;;;;;;;7.53;4.63;;;4.60;99.90;;;;;;5056083;28;20167;-64
2022/03/15 06:35:35;;;;;;;9.73;5.70;;;4.60;99.90;;;;;;5055387;28;20157;-64
2022/03/15 06:38:01;;;;;;;8.27;5.43;;;4.50;99.90;;;;;;5070714;28;20681;-64
2022/03/15 06:40:27;;;;;;;9.47;5.80;;;4.70;99.90;;;;;;5076226;28;20163;-64
2022/03/15 06:42:56;;;;;;;7.87;5.80;;;4.70;99.90;;;;;;5057551;28;20328;-65
2022/03/15 06:45:22;;;;;;;8.77;4.40;;;4.70;99.90;;;;;;5075212;28;20248;-65
2022/03/15 06:47:49;;;;;;;6.97;4.77;;;4.80;99.90;;;;;;5075948;28;20181;-65
2022/03/15 06:50:15;;;;;;;9.20;4.97;;;4.70;99.90;;;;;;5075702;28;20166;-65
2022/03/15 06:52:43;;;;;;;9.27;5.47;;;4.80;99.90;;;;;;5057687;28;20572;-65
2022/03/15 06:55:10;;;;;;;7.70;4.33;;;4.80;99.90;;;;;;5075640;28;20615;-64
2022/03/15 06:57:36;;;;;;;7.97;4.80;;;4.90;99.90;;;;;;5075111;28;20164;-65
2022/03/15 07:00:06;;;;;;;9.17;5.07;;;4.90;99.90;;;;;;5075081;28;20294;-63
2022/03/15 07:02:32;;;;;;;13.87;5.57;;;5.00;99.90;;;;;;5075228;28;20197;-64
2022/03/15 07:04:58;;;;;;;8.83;6.10;;;5.10;99.90;;;;;;5075064;28;20167;-64
2022/03/15 07:07:23;;;;;;;8.53;4.70;;;5.20;99.90;;;;;;5057414;28;20262;-64
2022/03/15 07:09:49;;;;;;;8.60;4.93;;;5.30;99.90;;;;;;5074741;28;20167;-64
2022/03/15 07:12:15;;;;;;;10.70;5.03;;;5.30;99.90;;;;;;5075005;28;20198;-64
2022/03/15 07:14:43;;;;;;;11.63;5.53;;;5.40;99.90;;;;;;5074637;28;20189;-64
2022/03/15 07:17:08;;;;;;;8.17;5.30;;;5.30;99.90;;;;;;5090717;28;20507;-65
2022/03/15 07:19:34;;;;;;;10.63;5.63;;;5.30;99.90;;;;;;5074907;28;20205;-64
2022/03/15 07:22:00;;;;;;;11.17;5.33;;;5.40;99.90;;;;;;5074874;28;20655;-66
2022/03/15 07:24:26;;;;;;;9.10;4.90;;;5.60;99.90;;;;;;5074914;28;20550;-63
2022/03/15 07:26:51;;;;;;;10.73;5.17;;;5.60;99.90;;;;;;5075037;28;20610;-64
2022/03/15 07:29:17;;;;;;;11.20;6.07;;;5.70;99.90;;;;;;5074496;28;20461;-64
2022/03/15 07:31:43;;;;;;;9.67;5.20;;;5.70;99.90;;;;;;5075096;28;20223;-65
2022/03/15 07:34:09;;;;;;;7.53;5.23;;;5.80;99.90;;;;;;5074633;28;20158;-64
2022/03/15 07:36:35;;;;;;;9.77;5.60;;;5.90;99.90;;;;;;5074791;28;20225;-64
2022/03/15 07:39:03;;;;;;;15.83;7.43;;;6.10;99.90;;;;;;5075377;28;20201;-63
2022/03/15 07:41:29;;;;;;;9.87;6.07;;;5.90;99.90;;;;;;5075657;28;20232;-64
2022/03/15 07:43:54;;;;;;;14.77;7.07;;;6.20;99.90;;;;;;5074676;28;20157;-64
2022/03/15 07:46:20;;;;;;;11.37;6.07;;;6.40;99.90;;;;;;5074696;28;20614;-65
2022/03/15 07:48:46;;;;;;;10.57;6.10;;;6.50;99.90;;;;;;5074025;28;20210;-64
2022/03/15 07:51:11;;;;;;;12.23;6.00;;;6.40;99.90;;;;;;5074393;28;20168;-65
2022/03/15 07:53:37;;;;;;;12.47;7.47;;;6.50;99.90;;;;;;5073690;28;20171;-65
2022/03/15 07:56:03;;;;;;;9.20;5.40;;;6.70;99.90;;;;;;5073270;28;20159;-64
2022/03/15 07:58:29;;;;;;;10.20;5.73;;;6.80;99.90;;;;;;5073869;28;20198;-65
2022/03/15 08:00:56;;;;;;;10.23;5.50;;;6.80;99.90;;;;;;5073958;28;20163;-65
2022/03/15 08:03:23;;;;;;;11.03;5.67;;;6.80;99.90;;;;;;5056095;28;20177;-65
2022/03/15 08:05:49;;;;;;;8.93;5.43;;;6.90;99.90;;;;;;5056313;28;20175;-63
2022/03/15 08:08:15;;;;;;;8.67;5.10;;;7.00;99.90;;;;;;5074075;28;20170;-64
2022/03/15 08:10:41;;;;;;;8.17;4.70;;;7.00;99.90;;;;;;5055513;28;20307;-65
2022/03/15 08:13:07;;;;;;;11.00;6.10;;;6.90;99.90;;;;;;5073722;28;20606;-65
2022/03/15 08:15:33;;;;;;;7.47;5.13;;;7.00;99.90;;;;;;5073831;28;20253;-64
2022/03/15 08:17:58;;;;;;;9.67;6.30;;;7.10;99.90;;;;;;5073471;28;20285;-64
2022/03/15 08:20:27;;;;;;;8.47;5.50;;;7.20;99.90;;;;;;5073457;28;20187;-64
2022/03/15 08:22:55;;;;;;;9.77;4.97;;;7.30;99.90;;;;;;5073776;28;20671;-64
2022/03/15 08:25:21;;;;;;;10.00;4.73;;;7.40;99.90;;;;;;5073675;28;20189;-64
2022/03/15 08:27:47;;;;;;;13.07;6.97;;;7.40;99.90;;;;;;5073507;28;20243;-64
2022/03/15 08:30:12;;;;;;;11.07;6.17;;;7.60;99.90;;;;;;5073302;28;20245;-65
2022/03/15 08:32:38;;;;;;;11.70;6.27;;;7.60;99.90;;;;;;5073255;28;20169;-65
2022/03/15 08:35:04;;;;;;;8.30;6.03;;;7.90;99.90;;;;;;5073491;28;20164;-64
2022/03/15 08:37:30;;;;;;;10.87;6.17;;;8.00;99.90;;;;;;5073331;28;20228;-66
2022/03/15 08:39:56;;;;;;;11.30;6.63;;;8.00;99.90;;;;;;5054868;28;20188;-65
2022/03/15 08:42:21;;;;;;;12.53;6.77;;;8.10;99.90;;;;;;5073069;28;20167;-65
2022/03/15 08:44:47;;;;;;;16.70;9.47;;;8.00;99.90;;;;;;5073264;28;20555;-64
2022/03/15 08:47:13;;;;;;;12.60;6.70;;;8.20;99.90;;;;;;5073506;28;20178;-65
2022/03/15 08:49:39;;;;;;;8.73;5.27;;;8.40;99.90;;;;;;5055766;28;20179;-63
2022/03/15 08:52:08;;;;;;;11.17;6.80;;;8.60;99.90;;;;;;5074029;28;20170;-64
2022/03/15 08:54:34;;;;;;;8.57;5.67;;;8.80;99.90;;;;;;5073081;28;20618;-64
2022/03/15 08:57:00;;;;;;;11.10;7.00;;;8.80;99.90;;;;;;5073318;28;20164;-64
2022/03/15 08:59:25;;;;;;;9.43;5.03;;;8.90;99.90;;;;;;5055059;28;20202;-65
2022/03/15 09:01:52;;;;;;;8.83;5.70;;;8.90;99.90;;;;;;5073771;28;20221;-64
2022/03/15 09:04:18;;;;;;;11.70;5.90;;;9.00;99.90;;;;;;5074891;28;20269;-64
2022/03/15 09:06:43;;;;;;;8.13;5.67;;;9.10;99.90;;;;;;5076641;28;20642;-64
2022/03/15 09:09:09;;;;;;;9.97;5.50;;;9.00;99.90;;;;;;5077836;28;20587;-66
2022/03/15 09:11:35;;;;;;;11.13;6.37;;;9.10;99.90;;;;;;5077790;28;20163;-64
2022/03/15 09:14:01;;;;;;;8.47;5.53;;;9.20;99.90;;;;;;5077634;28;20254;-64
2022/03/15 09:16:27;;;;;;;8.17;5.00;;;9.20;99.90;;;;;;5060799;28;20540;-64
2022/03/15 09:18:53;;;;;;;10.30;5.47;;;9.50;99.90;;;;;;5080135;28;20288;-65
2022/03/15 09:21:19;;;;;;;8.73;5.43;;;9.60;99.90;;;;;;5080372;28;20258;-63
2022/03/15 09:23:45;;;;;;;8.00;5.60;;;9.60;99.90;;;;;;5081566;28;20171;-65
2022/03/15 09:26:11;;;;;;;8.90;5.17;;;9.70;99.90;;;;;;5079273;28;20178;-65
2022/03/15 09:28:37;;;;;;;10.00;4.90;;;9.80;99.90;;;;;;5077056;28;20168;-64
2022/03/15 09:31:04;;;;;;;9.87;5.60;;;9.90;99.90;;;;;;5076611;28;20167;-64
2022/03/15 09:33:30;;;;;;;8.37;5.30;;;10.10;99.90;;;;;;5077005;28;20163;-64
2022/03/15 09:35:57;;;;;;;8.40;5.23;;;10.10;99.90;;;;;;5077138;28;20595;-65
2022/03/15 09:38:24;;;;;;;10.50;4.83;;;10.20;99.90;;;;;;5076592;28;20223;-64
2022/03/15 09:40:53;;;;;;;9.37;5.33;;;10.50;99.90;;;;;;5076948;28;20610;-65
2022/03/15 09:43:23;;;;;;;9.57;5.90;;;10.60;99.90;;;;;;5077644;28;20576;-65
2022/03/15 09:45:50;;;;;;;8.23;4.80;;;10.50;99.90;;;;;;5076861;28;20492;-63
2022/03/15 09:48:20;;;;;;;6.53;4.33;;;10.50;99.90;;;;;;5076998;28;20485;-63
2022/03/15 09:50:49;;;;;;;8.03;4.80;;;10.60;99.90;;;;;;5058832;28;20229;-64
2022/03/15 09:53:16;;;;;;;10.57;5.07;;;10.70;99.90;;;;;;5076848;28;20202;-65
2022/03/15 09:55:45;;;;;;;9.03;4.63;;;10.70;99.90;;;;;;5076355;28;20271;-65
2022/03/15 09:58:12;;;;;;;8.97;5.53;;;10.80;99.90;;;;;;5076987;28;20237;-65
2022/03/15 10:00:38;;;;;;;8.93;4.90;;;10.80;99.90;;;;;;5076457;28;20247;-64
2022/03/15 10:03:04;;;;;;;8.17;5.33;;;10.80;99.90;;;;;;5076464;28;20233;-64
2022/03/15 10:05:30;;;;;;;9.03;4.50;;;10.90;99.90;;;;;;5076490;28;20584;-65
2022/03/15 10:07:56;;;;;;;10.53;5.00;;;11.20;99.90;;;;;;5076547;28;20175;-64
2022/03/15 10:10:23;;;;;;;7.47;4.57;;;11.10;99.90;;;;;;5076222;28;20157;-68
2022/03/15 10:12:48;;;;;;;7.63;5.13;;;11.20;99.90;;;;;;5076016;28;20175;-65
2022/03/15 10:15:16;;;;;;;11.63;5.60;;;11.40;99.90;;;;;;5058652;28;20182;-64
2022/03/15 10:17:56;;;;;;;9.33;5.00;;;11.30;99.90;;;;;;5075263;28;20163;-65
2022/03/15 10:20:31;;;;;;;7.07;4.47;;;11.50;99.90;;;;;;5076414;28;20167;-65
2022/03/15 10:23:02;;;;;;;8.60;4.57;;;11.50;99.90;;;;;;5058399;28;20511;-65
2022/03/15 10:25:32;;;;;;;11.23;4.53;;;11.50;99.90;;;;;;5075662;28;20156;-64
2022/03/15 10:28:01;;;;;;;6.17;4.50;;;11.60;99.90;;;;;;5076458;28;20171;-66
2022/03/15 10:30:30;;;;;;;8.70;4.93;;;11.70;99.90;;;;;;5078218;28;20237;-66
2022/03/15 10:32:57;;;;;;;8.10;4.13;;;11.90;99.90;;;;;;5075581;28;20201;-66
2022/03/15 10:35:25;;;;;;;8.40;4.47;;;12.00;99.90;;;;;;5075807;28;20152;-65
2022/03/15 10:37:52;;;;;;;6.90;4.33;;;12.20;99.90;;;;;;5090657;28;20238;-66
2022/03/15 10:40:30;;;;;;;7.17;4.53;;;12.30;99.90;;;;;;5075728;28;20300;-65
2022/03/15 10:43:03;;;;;;;9.20;4.87;;;12.40;99.90;;;;;;5075222;28;20167;-65
2022/03/15 10:45:29;;;;;;;9.03;4.70;;;12.40;99.90;;;;;;5075735;28;20243;-64
2022/03/15 10:47:55;;;;;;;9.17;4.30;;;12.50;99.90;;;;;;5075673;28;20613;-65
2022/03/15 10:50:22;;;;;;;12.27;5.47;;;12.50;99.90;;;;;;5075395;28;20587;-64
2022/03/15 10:52:48;;;;;;;8.03;4.60;;;12.40;99.90;;;;;;5075155;28;20169;-66
2022/03/15 10:55:28;;;;;;;8.33;4.30;;;12.40;99.90;;;;;;5075420;28;20626;-65
2022/03/15 10:58:05;;;;;;;10.13;4.40;;;12.50;99.90;;;;;;5075125;28;20243;-66
2022/03/15 11:00:35;;;;;;;5.47;3.53;;;12.50;99.90;;;;;;5075514;28;20213;-65
2022/03/15 11:03:02;;;;;;;10.13;4.53;;;12.70;99.90;;;;;;5090659;28;20171;-64
2022/03/15 11:05:36;;;;;;;9.57;4.50;;;12.70;99.90;;;;;;5075201;28;20156;-67
2022/03/15 11:08:11;;;;;;;7.30;4.73;;;12.60;99.90;;;;;;5075123;28;20618;-64
2022/03/15 11:10:38;;;;;;;6.47;3.90;;;12.60;99.90;;;;;;5075003;28;20502;-64
2022/03/15 11:13:12;;;;;;;7.13;4.07;;;12.70;99.90;;;;;;5074680;28;20317;-66
2022/03/15 11:15:42;;;;;;;8.40;4.93;;;12.60;99.90;;;;;;5074988;28;20162;-66
2022/03/15 11:18:13;;;;;;;8.93;4.33;;;12.70;99.90;;;;;;5075037;28;20274;-65
2022/03/15 11:20:43;;;;;;;7.47;4.30;;;12.60;99.90;;;;;;5075298;28;20568;-65
2022/03/15 11:23:11;;;;;;;7.57;4.87;;;12.70;99.90;;;;;;5075158;28;20251;-65
2022/03/15 11:25:38;;;;;;;7.10;3.97;;;12.90;99.90;;;;;;5074661;28;20192;-67
2022/03/15 11:28:07;;;;;;;9.27;5.13;;;13.00;99.90;;;;;;5074696;28;20178;-65
2022/03/15 11:30:33;;;;;;;42.50;29.60;;;13.00;99.90;;;;;;5074772;28;20168;-65
2022/03/15 11:33:02;;;;;;;9.93;5.13;;;12.90;99.90;;;;;;5090009;28;20179;-64
2022/03/15 11:35:31;;;;;;;8.40;4.30;;;12.80;99.90;;;;;;5074384;28;20152;-66
2022/03/15 11:37:58;;;;;;;7.57;4.50;;;12.70;99.90;;;;;;5074585;28;20307;-65
2022/03/15 11:40:24;;;;;;;8.90;4.47;;;12.90;99.90;;;;;;5074946;28;20251;-65
2022/03/15 11:43:00;;;;;;;6.60;3.87;;;13.00;99.90;;;;;;5074884;28;20256;-76
2022/03/15 11:45:42;;;;;;;7.07;4.27;;;13.40;99.90;;;;;;5074244;28;20162;-67
2022/03/15 11:48:39;;;;;;;13.40;4.70;;;13.10;99.90;;;;;;5089897;28;20186;-66
2022/03/15 11:51:19;;;;;;;10.60;4.80;;;13.00;99.90;;;;;;5074473;28;20156;-67
2022/03/15 11:53:56;;;;;;;6.37;3.93;;;13.10;99.90;;;;;;5076541;28;20163;-65
2022/03/15 11:56:37;;;;;;;6.57;3.87;;;13.00;99.90;;;;;;5074642;28;20193;-67
2022/03/15 11:59:02;;;;;;;5.80;4.03;;;13.00;99.90;;;;;;5056161;28;20633;-65
2022/03/15 12:01:30;;;;;;;7.77;3.87;;;12.90;99.90;;;;;;5074521;28;20191;-67
2022/03/15 12:03:58;;;;;;;8.70;4.10;;;13.00;99.90;;;;;;5074413;28;20207;-66
2022/03/15 12:06:28;;;;;;;8.90;4.07;;;12.90;99.90;;;;;;5073779;28;20254;-65
2022/03/15 12:08:59;;;;;;;6.93;4.13;;;13.00;99.90;;;;;;5073931;28;20242;-65
2022/03/15 12:11:35;;;;;;;8.63;3.63;;;12.80;99.90;;;;;;5073992;28;20152;-65
2022/03/15 12:14:19;;;;;;;9.03;4.37;;;13.00;99.90;;;;;;5074114;28;20175;-65
2022/03/15 12:16:48;;;;;;;8.17;4.40;;;13.00;99.90;;;;;;5073944;28;20168;-66
2022/03/15 12:19:39;;;;;;;8.87;4.53;;;13.00;99.90;;;;;;5073851;28;20210;-67
2022/03/15 12:22:06;;;;;;;8.47;3.87;;;13.10;99.90;;;;;;5073696;28;20225;-66
2022/03/15 12:24:45;;;;;;;5.60;3.43;;;13.10;99.90;;;;;;5074126;28;20170;-64
2022/03/15 12:27:14;;;;;;;7.40;4.30;;;12.90;99.90;;;;;;5073651;28;20166;-64
2022/03/15 12:29:54;;;;;;;10.53;4.57;;;13.00;99.90;;;;;;5089384;28;20251;-65
2022/03/15 12:32:20;;;;;;;4.93;3.73;;;13.10;99.90;;;;;;5074112;28;20162;-65
2022/03/15 12:34:49;;;;;;;6.50;3.73;;;13.10;99.90;;;;;;5073685;28;20188;-64
2022/03/15 12:37:16;;;;;;;5.23;3.40;;;13.00;99.90;;;;;;5076383;28;20215;-66
2022/03/15 12:39:52;;;;;;;6.20;3.23;;;13.20;99.90;;;;;;5076226;28;20195;-64
2022/03/15 12:42:21;;;;;;;6.30;3.90;;;13.00;99.90;;;;;;5092451;28;20205;-65
2022/03/15 12:44:51;;;;;;;12.23;5.50;;;13.00;99.90;;;;;;5075928;28;20156;-65
2022/03/15 12:47:21;;;;;;;6.93;3.67;;;13.00;99.90;;;;;;5077543;28;20223;-65
2022/03/15 12:50:12;;;;;;;10.47;4.03;;;13.00;99.90;;;;;;5077384;28;20167;-65
2022/03/15 12:52:45;;;;;;;7.23;3.97;;;12.90;99.90;;;;;;5076885;28;20159;-65
2022/03/15 12:55:27;;;;;;;7.80;4.23;;;13.00;99.90;;;;;;5075775;28;20563;-65